Time;durP1;ratioP1;P1;durP2;ratioP2;P2;SDS_P1;SDS_P2;PMS_P1;PMS_P2;Temp;Humidity;BMP_temperature;BMP_pressure;BME280_temperature;BME280_humidity;BME280_pressure;Samples;Min_cycle;Max_cycle;Signal;HPM_P1;HPM_P2
2023/12/01 00:00:23;;;;;;;37.13;26.03;;;;;;;5.18;97.22;99373.41;5074477;28;20654;-71
2023/12/01 00:02:50;;;;;;;43.70;26.90;;;;;;;5.17;97.37;99371.78;5074395;28;20199;-71
2023/12/01 00:05:16;;;;;;;38.20;25.67;;;;;;;5.12;98.28;99379.34;5074186;28;20730;-70
2023/12/01 00:07:43;;;;;;;37.87;25.30;;;;;;;5.17;98.91;99384.94;5074463;28;20200;-70
2023/12/01 00:10:11;;;;;;;46.87;27.67;;;;;;;5.07;98.50;99389.50;5074398;28;20245;-71
2023/12/01 00:12:38;;;;;;;41.33;26.30;;;;;;;4.92;98.52;99378.00;5074296;28;20232;-70
2023/12/01 00:15:06;;;;;;;38.37;26.83;;;;;;;4.82;99.38;99382.59;5074237;28;20352;-70
2023/12/01 00:17:34;;;;;;;43.60;27.33;;;;;;;4.81;99.59;99388.00;5074461;28;20720;-70
2023/12/01 00:20:01;;;;;;;51.53;29.67;;;;;;;4.80;99.88;99378.47;5074068;28;20227;-70
2023/12/01 00:22:27;;;;;;;47.43;28.13;;;;;;;4.76;99.58;99388.50;5074352;28;20547;-70
2023/12/01 00:24:54;;;;;;;47.47;28.20;;;;;;;4.67;99.79;99376.34;5073858;28;20213;-69
2023/12/01 00:27:21;;;;;;;42.20;27.43;;;;;;;4.69;100.00;99382.25;5074243;28;20328;-70
2023/12/01 00:29:47;;;;;;;39.90;26.27;;;;;;;4.75;100.00;99392.09;5073741;28;20601;-71
2023/12/01 00:32:14;;;;;;;44.30;27.33;;;;;;;4.71;100.00;99385.53;5073692;28;20203;-71
2023/12/01 00:34:42;;;;;;;47.50;26.80;;;;;;;4.60;99.82;99379.75;5073791;28;20223;-71
2023/12/01 00:37:09;;;;;;;39.03;25.83;;;;;;;4.66;100.00;99377.28;5073654;28;20253;-70
2023/12/01 00:39:36;;;;;;;43.63;27.33;;;;;;;4.74;100.00;99379.94;5073678;28;20200;-71
2023/12/01 00:42:03;;;;;;;42.57;26.13;;;;;;;4.78;100.00;99381.25;5073565;28;20192;-71
2023/12/01 00:44:30;;;;;;;39.60;27.00;;;;;;;4.84;100.00;99391.16;5073482;28;20629;-71
2023/12/01 00:46:57;;;;;;;42.00;25.60;;;;;;;4.90;99.70;99390.50;5073307;28;20257;-71
2023/12/01 00:49:23;;;;;;;41.37;26.50;;;;;;;4.97;99.94;99390.66;5072505;28;20279;-71
2023/12/01 00:51:51;;;;;;;40.00;26.50;;;;;;;5.01;99.58;99389.34;5073677;28;20207;-71
2023/12/01 00:54:19;;;;;;;39.47;25.53;;;;;;;5.05;99.19;99398.56;5073477;28;20439;-72
2023/12/01 00:56:45;;;;;;;37.43;25.40;;;;;;;5.08;98.95;99390.34;5073514;28;20227;-71
2023/12/01 00:59:12;;;;;;;38.80;27.23;;;;;;;5.05;97.96;99402.03;5073522;28;20659;-72
2023/12/01 01:01:39;;;;;;;39.70;25.73;;;;;;;5.01;97.46;99384.91;5073013;28;20265;-72
2023/12/01 01:04:06;;;;;;;35.13;25.03;;;;;;;5.07;97.08;99389.50;5073482;28;20196;-72
2023/12/01 01:06:32;;;;;;;38.53;25.30;;;;;;;5.11;97.68;99390.84;5071713;28;20195;-71
2023/12/01 01:09:00;;;;;;;36.13;24.60;;;;;;;5.07;97.59;99389.50;5072745;28;20196;-71
2023/12/01 01:11:27;;;;;;;38.10;24.80;;;;;;;5.07;97.39;99392.16;5073072;28;20192;-71
2023/12/01 01:13:54;;;;;;;39.03;25.80;;;;;;;5.10;97.18;99388.38;5072573;28;20679;-71
2023/12/01 01:16:22;;;;;;;37.53;25.37;;;;;;;5.12;97.19;99389.88;5072733;28;20285;-70
2023/12/01 01:18:48;;;;;;;37.23;24.73;;;;;;;5.06;96.51;99381.78;5072963;28;20224;-71
2023/12/01 01:21:15;;;;;;;38.17;24.40;;;;;;;5.01;97.08;99371.75;5072815;28;20195;-73
2023/12/01 01:23:42;;;;;;;42.00;24.40;;;;;;;4.99;96.93;99357.94;5072581;28;20197;-74
2023/12/01 01:26:10;;;;;;;36.80;25.10;;;;;;;4.87;97.26;99353.16;5073024;28;20214;-72
2023/12/01 01:28:37;;;;;;;34.97;24.43;;;;;;;4.81;97.23;99356.44;5072559;28;20196;-70
2023/12/01 01:31:03;;;;;;;35.50;23.40;;;;;;;4.84;98.26;99358.75;5072441;28;20277;-70
2023/12/01 01:33:31;;;;;;;38.83;25.73;;;;;;;4.86;98.39;99360.22;5072437;28;20689;-70
2023/12/01 01:35:58;;;;;;;40.90;25.03;;;;;;;4.85;97.69;99339.34;5072461;28;20220;-71
2023/12/01 01:38:24;;;;;;;40.33;25.33;;;;;;;4.78;97.82;99344.44;5071358;28;20227;-71
2023/12/01 01:40:51;;;;;;;40.07;25.67;;;;;;;4.68;98.25;99354.28;5072689;28;20192;-71
2023/12/01 01:43:23;;;;;;;45.53;26.60;;;;;;;4.67;98.77;99342.13;5072503;28;20196;-72
2023/12/01 01:45:58;;;;;;;41.97;26.13;;;;;;;4.59;98.44;99343.91;5072317;28;20265;-71
2023/12/01 01:48:24;;;;;;;40.23;25.33;;;;;;;4.55;98.26;99330.28;5072450;28;20199;-71
2023/12/01 01:50:51;;;;;;;38.67;25.50;;;;;;;4.50;99.94;99327.28;5072324;28;20583;-70
2023/12/01 01:53:18;;;;;;;38.77;26.07;;;;;;;4.46;99.33;99331.22;5072162;28;20672;-71
2023/12/01 01:55:45;;;;;;;39.90;26.33;;;;;;;4.47;99.68;99330.25;5071944;28;20728;-71
2023/12/01 01:58:13;;;;;;;40.27;26.93;;;;;;;4.46;99.40;99322.53;5071845;28;20664;-71
2023/12/01 02:00:44;;;;;;;40.77;26.40;;;;;;;4.39;99.22;99329.41;5072321;28;20536;-70
2023/12/01 02:03:11;;;;;;;39.57;26.07;;;;;;;4.37;98.71;99321.69;5072444;28;20188;-71
2023/12/01 02:05:37;;;;;;;38.70;25.90;;;;;;;4.43;98.59;99315.78;5071836;28;20564;-70
2023/12/01 02:08:24;;;;;;;44.33;27.03;;;;;;;4.44;98.38;99306.06;5071966;28;20192;-70
2023/12/01 02:10:51;;;;;;;43.50;27.03;;;;;;;4.51;98.48;99315.81;5072282;28;20191;-71
2023/12/01 02:13:18;;;;;;;41.23;26.50;;;;;;;4.54;98.30;99331.25;5071698;28;20188;-71
2023/12/01 02:15:47;;;;;;;45.73;27.70;;;;;;;4.41;98.48;99325.63;5071871;28;20481;-70
2023/12/01 02:18:21;;;;;;;42.13;25.77;;;;;;;4.33;99.35;99315.09;5071714;28;20227;-70
2023/12/01 02:20:48;;;;;;;37.27;24.90;;;;;;;4.35;99.77;99313.16;5071287;28;20571;-70
2023/12/01 02:23:16;;;;;;;41.47;26.87;;;;;;;4.43;99.71;99323.69;5071587;28;20663;-70
2023/12/01 02:25:43;;;;;;;42.40;26.67;;;;;;;4.48;99.88;99334.53;5071958;28;20261;-70
2023/12/01 02:28:10;;;;;;;45.13;26.17;;;;;;;4.46;99.89;99318.06;5071649;28;20196;-70
2023/12/01 02:30:37;;;;;;;39.10;26.30;;;;;;;4.52;99.48;99327.97;5071921;28;20233;-70
2023/12/01 02:33:04;;;;;;;39.37;25.83;;;;;;;4.61;99.23;99327.00;5071584;28;20668;-69
2023/12/01 02:35:31;;;;;;;40.73;24.83;;;;;;;4.62;98.22;99312.84;5071542;28;20231;-70
2023/12/01 02:37:58;;;;;;;40.23;25.83;;;;;;;4.66;97.73;99318.63;5071167;28;20253;-72
2023/12/01 02:40:27;;;;;;;35.00;24.13;;;;;;;4.68;97.76;99314.84;5071835;28;20200;-70
2023/12/01 02:42:54;;;;;;;35.63;24.50;;;;;;;4.71;97.53;99317.13;5072085;28;20203;-70
2023/12/01 02:45:22;;;;;;;36.37;25.83;;;;;;;4.61;97.51;99305.09;5071677;28;20192;-70
2023/12/01 02:47:49;;;;;;;36.60;23.73;;;;;;;4.66;97.86;99324.69;5071549;28;20191;-70
2023/12/01 02:50:16;;;;;;;35.10;23.47;;;;;;;4.72;98.56;99305.63;5071505;28;20195;-73
2023/12/01 02:52:44;;;;;;;34.93;22.40;;;;;;;4.70;98.12;99304.97;5071829;28;20202;-71
2023/12/01 02:55:12;;;;;;;34.90;23.23;;;;;;;4.78;97.39;99312.84;5071593;28;20223;-72
2023/12/01 02:57:41;;;;;;;33.33;24.17;;;;;;;4.76;97.34;99317.47;5071713;28;20196;-71
2023/12/01 03:00:13;;;;;;;36.73;23.20;;;;;;;4.63;96.65;99304.00;5071350;28;20676;-72
2023/12/01 03:02:40;;;;;;;38.67;23.60;;;;;;;4.60;97.26;99306.94;5071464;28;20291;-71
2023/12/01 03:05:08;;;;;;;31.87;23.03;;;;;;;4.54;98.25;99304.13;5071390;28;20663;-70
2023/12/01 03:07:34;;;;;;;33.67;23.03;;;;;;;4.47;98.54;99316.28;5071174;28;20203;-69
2023/12/01 03:10:01;;;;;;;37.53;23.37;;;;;;;4.41;99.21;99315.13;5071752;28;20196;-69
2023/12/01 03:12:28;;;;;;;39.07;23.53;;;;;;;4.41;99.91;99314.31;5071604;28;20204;-69
2023/12/01 03:14:58;;;;;;;33.20;22.73;;;;;;;4.31;99.37;99313.63;5071450;28;20278;-69
2023/12/01 03:17:25;;;;;;;35.10;22.87;;;;;;;4.18;99.91;99323.78;5071405;28;20253;-69
2023/12/01 03:19:52;;;;;;;34.90;22.80;;;;;;;4.10;100.00;99323.75;5071540;28;20196;-69
2023/12/01 03:22:19;;;;;;;37.83;23.87;;;;;;;4.13;100.00;99315.56;5071023;28;20188;-70
2023/12/01 03:24:47;;;;;;;34.00;22.13;;;;;;;4.09;99.92;99315.03;5071224;28;20660;-70
2023/12/01 03:27:14;;;;;;;41.70;24.83;;;;;;;4.10;100.00;99327.22;5071084;28;20683;-71
2023/12/01 03:29:41;;;;;;;35.30;23.47;;;;;;;4.10;100.00;99315.84;5071433;28;20465;-71
2023/12/01 03:32:09;;;;;;;37.73;23.47;;;;;;;4.09;100.00;99325.53;5072036;28;20663;-72
2023/12/01 03:34:36;;;;;;;31.70;22.37;;;;;;;4.11;100.00;99323.59;5073317;28;20446;-71
2023/12/01 03:37:03;;;;;;;37.57;24.47;;;;;;;4.06;100.00;99320.63;5074446;28;20219;-71
2023/12/01 03:39:31;;;;;;;36.17;23.60;;;;;;;4.09;100.00;99315.03;5074711;28;20433;-71
2023/12/01 03:41:58;;;;;;;32.83;23.60;;;;;;;4.04;100.00;99306.81;5074775;28;20196;-72
2023/12/01 03:44:25;;;;;;;36.37;25.13;;;;;;;4.00;100.00;99294.16;5074315;28;20433;-73
2023/12/01 03:46:51;;;;;;;34.43;24.30;;;;;;;3.98;100.00;99302.19;5074579;28;20568;-70
2023/12/01 03:49:19;;;;;;;36.73;23.07;;;;;;;3.83;100.00;99303.78;5074544;28;20226;-71
2023/12/01 03:51:46;;;;;;;37.17;23.57;;;;;;;3.79;100.00;99301.59;5074533;28;20487;-71
2023/12/01 03:54:13;;;;;;;35.90;23.37;;;;;;;3.74;100.00;99304.72;5073285;28;20192;-71
2023/12/01 03:56:40;;;;;;;42.60;24.60;;;;;;;3.68;100.00;99304.53;5074200;28;20410;-71
2023/12/01 03:59:09;;;;;;;38.70;25.30;;;;;;;3.77;100.00;99295.69;5074127;28;20749;-71
2023/12/01 04:01:38;;;;;;;33.90;23.23;;;;;;;3.75;100.00;99297.66;5074018;28;20192;-69
2023/12/01 04:04:05;;;;;;;38.00;23.90;;;;;;;3.82;100.00;99296.88;5074586;28;20192;-69
2023/12/01 04:06:33;;;;;;;34.70;23.83;;;;;;;3.81;100.00;99300.50;5074482;28;20532;-70
2023/12/01 04:09:05;;;;;;;33.70;23.43;;;;;;;3.78;100.00;99290.28;5074030;28;20253;-69
2023/12/01 04:11:33;;;;;;;34.20;23.97;;;;;;;3.79;100.00;99288.47;5073784;28;20279;-70
2023/12/01 04:14:00;;;;;;;32.30;23.13;;;;;;;3.91;100.00;99290.66;5073765;28;20187;-74
2023/12/01 04:16:27;;;;;;;34.47;23.00;;;;;;;4.01;100.00;99296.59;5073882;28;20538;-69
2023/12/01 04:18:54;;;;;;;29.53;22.17;;;;;;;4.10;100.00;99276.44;5074192;28;20195;-69
2023/12/01 04:21:20;;;;;;;33.77;22.73;;;;;;;4.17;100.00;99285.34;5073570;28;20279;-70
2023/12/01 04:23:49;;;;;;;31.33;21.33;;;;;;;4.27;100.00;99286.00;5073683;28;20819;-70
2023/12/01 04:26:15;;;;;;;36.10;22.13;;;;;;;4.37;100.00;99278.81;5073617;28;20524;-69
2023/12/01 04:28:42;;;;;;;29.17;22.60;;;;;;;4.47;100.00;99279.47;5073721;28;20229;-68
2023/12/01 04:31:09;;;;;;;25.40;20.10;;;;;;;4.44;100.00;99259.59;5074244;28;20691;-70
2023/12/01 04:33:36;;;;;;;30.10;20.67;;;;;;;4.59;100.00;99279.00;5073931;28;20196;-69
2023/12/01 04:36:06;;;;;;;31.47;21.07;;;;;;;4.52;99.92;99275.38;5073845;28;20220;-69
2023/12/01 04:38:35;;;;;;;31.53;20.30;;;;;;;4.56;100.00;99281.94;5073845;28;20961;-69
2023/12/01 04:41:03;;;;;;;30.90;20.97;;;;;;;4.63;100.00;99272.44;5072233;28;20219;-73
2023/12/01 04:43:33;;;;;;;32.20;21.27;;;;;;;4.73;100.00;99269.59;5073074;28;20317;-70
2023/12/01 04:45:59;;;;;;;29.00;20.00;;;;;;;4.73;99.59;99283.59;5073779;28;20207;-69
2023/12/01 04:48:26;;;;;;;40.10;20.30;;;;;;;4.77;99.40;99284.09;5085159;28;20220;-72
2023/12/01 04:50:53;;;;;;;30.53;20.97;;;;;;;4.78;99.56;99283.91;5073439;28;20227;-70
2023/12/01 04:53:20;;;;;;;29.37;20.33;;;;;;;4.87;99.14;99279.50;5074250;28;20220;-70
2023/12/01 04:55:47;;;;;;;26.13;18.70;;;;;;;4.91;99.49;99280.81;5072645;28;20196;-70
2023/12/01 04:58:16;;;;;;;32.60;21.27;;;;;;;4.98;99.18;99287.03;5073468;28;20290;-70
2023/12/01 05:00:42;;;;;;;38.90;19.57;;;;;;;5.00;98.77;99285.06;5073135;28;20223;-71
2023/12/01 05:03:10;;;;;;;31.43;19.77;;;;;;;4.98;98.17;99279.97;5072931;28;20234;-72
2023/12/01 05:05:38;;;;;;;27.20;20.20;;;;;;;4.98;98.46;99298.38;5071663;28;20192;-71
2023/12/01 05:08:07;;;;;;;25.33;18.93;;;;;;;4.88;98.25;99296.91;5070405;28;20269;-74
2023/12/01 05:10:35;;;;;;;26.87;20.43;;;;;;;4.92;97.64;99285.91;5070671;28;20191;-71
2023/12/01 05:13:03;;;;;;;28.77;19.57;;;;;;;4.95;98.27;99288.19;5072925;28;20196;-71
2023/12/01 05:15:32;;;;;;;23.30;17.17;;;;;;;4.94;97.77;99306.75;5071127;28;20610;-70
2023/12/01 05:18:01;;;;;;;21.37;16.93;;;;;;;4.97;97.27;99290.66;5072034;28;20231;-72
2023/12/01 05:20:29;;;;;;;21.87;16.53;;;;;;;4.77;96.71;99281.44;5071138;28;20200;-69
2023/12/01 05:22:56;;;;;;;28.60;20.47;;;;;;;4.79;97.22;99303.16;5072419;28;20650;-69
2023/12/01 05:25:25;;;;;;;24.97;19.00;;;;;;;4.77;96.54;99300.69;5072278;28;20286;-70
2023/12/01 05:27:53;;;;;;;21.40;16.77;;;;;;;4.82;96.73;99282.59;5071772;28;20195;-71
2023/12/01 05:30:21;;;;;;;38.10;29.43;;;;;;;4.79;96.86;99298.72;5072083;28;20586;-69
2023/12/01 05:32:51;;;;;;;22.90;18.90;;;;;;;4.71;96.80;99285.56;5072600;28;20188;-70
2023/12/01 05:35:18;;;;;;;21.30;15.83;;;;;;;4.72;96.49;99292.47;5072107;28;20203;-71
2023/12/01 05:37:47;;;;;;;19.97;14.93;;;;;;;4.58;96.24;99295.75;5072359;28;20234;-72
2023/12/01 05:40:16;;;;;;;20.53;15.47;;;;;;;4.47;96.25;99290.00;5071865;28;20234;-72
2023/12/01 05:42:43;;;;;;;24.40;16.47;;;;;;;4.34;96.63;99277.31;5071209;28;20570;-70
2023/12/01 05:45:11;;;;;;;18.80;15.23;;;;;;;4.30;97.83;99275.97;5072077;28;20192;-69
2023/12/01 05:47:42;;;;;;;29.90;17.07;;;;;;;4.27;98.53;99286.84;5071410;28;20213;-71
2023/12/01 05:50:13;;;;;;;23.73;16.33;;;;;;;4.36;99.52;99280.59;5071280;28;20184;-72
2023/12/01 05:52:41;;;;;;;23.77;17.37;;;;;;;4.30;98.76;99273.34;5071970;28;20187;-71
2023/12/01 05:55:14;;;;;;;22.53;15.73;;;;;;;4.14;98.91;99267.25;5070606;28;20310;-73
2023/12/01 05:57:42;;;;;;;21.87;16.73;;;;;;;4.25;100.00;99259.88;5071479;28;20261;-75
2023/12/01 06:00:12;;;;;;;21.17;15.50;;;;;;;4.28;99.59;99245.59;5071467;28;20211;-74
2023/12/01 06:02:40;;;;;;;20.60;15.10;;;;;;;4.36;100.00;99254.31;5066125;28;20254;-75
2023/12/01 06:05:08;;;;;;;18.73;16.27;;;;;;;4.33;100.00;99262.53;5069530;28;20282;-75
2023/12/01 06:07:37;;;;;;;22.07;17.33;;;;;;;4.30;100.00;99249.69;5068330;28;20188;-74
2023/12/01 06:10:05;;;;;;;24.00;18.07;;;;;;;4.38;100.00;99235.75;5068210;28;20731;-74
2023/12/01 06:12:32;;;;;;;19.97;16.40;;;;;;;4.47;100.00;99235.59;5049088;28;20192;-77
2023/12/01 06:14:59;;;;;;;23.57;16.23;;;;;;;4.61;100.00;99231.47;5065708;28;20188;-77
2023/12/01 06:17:26;;;;;;;21.03;16.37;;;;;;;4.72;100.00;99254.81;5063966;28;20234;-76
2023/12/01 06:19:53;;;;;;;23.13;17.17;;;;;;;4.75;98.48;99254.50;5066783;28;20444;-75
2023/12/01 06:22:20;;;;;;;22.60;18.20;;;;;;;4.79;97.49;99255.81;5063129;28;20202;-73
2023/12/01 06:24:49;;;;;;;25.60;18.33;;;;;;;4.83;97.25;99257.94;5068261;28;20246;-73
2023/12/01 06:27:16;;;;;;;26.20;19.27;;;;;;;4.77;97.00;99258.59;5068724;28;20249;-74
2023/12/01 06:29:42;;;;;;;31.57;19.57;;;;;;;4.83;96.97;99247.41;5070844;28;20281;-73
2023/12/01 06:32:09;;;;;;;25.60;20.00;;;;;;;4.80;96.85;99245.13;5071327;28;20254;-74
2023/12/01 06:34:36;;;;;;;24.80;19.43;;;;;;;4.80;97.20;99257.44;5071547;28;20219;-75
2023/12/01 06:37:03;;;;;;;25.93;19.47;;;;;;;4.78;97.17;99249.72;5071262;28;20215;-75
2023/12/01 06:39:29;;;;;;;29.93;20.50;;;;;;;4.80;97.09;99247.75;5071127;28;20196;-75
2023/12/01 06:41:57;;;;;;;27.97;19.10;;;;;;;4.84;97.35;99258.75;5071273;28;20210;-75
2023/12/01 06:44:24;;;;;;;26.53;21.10;;;;;;;4.75;97.65;99265.81;5071475;28;20200;-76
2023/12/01 06:46:51;;;;;;;42.20;27.67;;;;;;;4.72;97.44;99271.44;5071145;28;20574;-75
2023/12/01 06:49:19;;;;;;;64.73;35.80;;;;;;;4.84;98.59;99278.00;5070824;28;20196;-75
2023/12/01 06:51:45;;;;;;;45.17;28.60;;;;;;;4.95;98.16;99277.66;5071103;28;20284;-75
2023/12/01 06:54:12;;;;;;;47.60;28.13;;;;;;;5.05;97.81;99282.75;5070770;28;20321;-74
2023/12/01 06:56:39;;;;;;;44.93;27.37;;;;;;;5.03;97.40;99275.03;5070628;28;20281;-73
2023/12/01 06:59:08;;;;;;;63.40;33.20;;;;;;;4.98;96.97;99279.13;5071077;28;20253;-75
2023/12/01 07:01:35;;;;;;;40.30;25.13;;;;;;;5.10;98.20;99270.75;5071203;28;20219;-75
2023/12/01 07:04:07;;;;;;;33.27;22.50;;;;;;;5.27;98.74;99288.16;5070495;28;20275;-74
2023/12/01 07:06:34;;;;;;;43.90;25.93;;;;;;;5.29;97.58;99296.72;5071685;28;20729;-74
2023/12/01 07:09:01;;;;;;;66.00;35.87;;;;;;;5.20;96.96;99307.44;5074770;28;20560;-76
2023/12/01 07:11:28;;;;;;;101.63;43.70;;;;;;;5.33;98.35;99308.56;5074991;28;20196;-76
2023/12/01 07:13:55;;;;;;;49.07;28.53;;;;;;;5.34;97.08;99304.09;5074900;28;20282;-73
2023/12/01 07:16:23;;;;;;;54.03;28.70;;;;;;;5.45;98.77;99301.97;5074642;28;20622;-74
2023/12/01 07:18:51;;;;;;;40.43;26.43;;;;;;;5.44;97.73;99292.38;5075011;28;20269;-75
2023/12/01 07:21:17;;;;;;;63.30;31.83;;;;;;;5.59;98.55;99285.44;5074865;28;20227;-75
2023/12/01 07:23:46;;;;;;;77.93;37.07;;;;;;;5.65;97.70;99271.59;5073409;28;20197;-77
2023/12/01 07:26:12;;;;;;;51.53;29.37;;;;;;;5.90;97.84;99290.78;5072360;28;20197;-74
2023/12/01 07:28:39;;;;;;;44.97;25.83;;;;;;;6.15;97.57;99299.41;5072541;28;20191;-75
2023/12/01 07:31:06;;;;;;;48.63;27.73;;;;;;;6.35;96.23;99296.16;5073870;28;20645;-75
2023/12/01 07:33:34;;;;;;;39.00;24.60;;;;;;;6.42;95.18;99305.03;5074902;28;20257;-77
2023/12/01 07:36:01;;;;;;;34.17;24.17;;;;;;;6.60;94.93;99304.72;5074257;28;20636;-74
2023/12/01 07:38:28;;;;;;;31.53;21.30;;;;;;;6.90;93.69;99314.44;5054733;28;20281;-75
2023/12/01 07:40:54;;;;;;;30.97;19.40;;;;;;;6.88;91.98;99306.69;5063362;28;20211;-76
2023/12/01 07:43:21;;;;;;;29.67;17.67;;;;;;;6.70;91.45;99307.97;5071756;28;20193;-77
2023/12/01 07:45:48;;;;;;;31.67;19.07;;;;;;;6.73;92.49;99315.56;5072267;28;20647;-75
2023/12/01 07:48:15;;;;;;;32.50;20.33;;;;;;;6.82;91.55;99311.84;5072559;28;20197;-75
2023/12/01 07:50:44;;;;;;;25.93;18.47;;;;;;;6.76;91.24;99304.63;5072495;28;20627;-76
2023/12/01 07:53:12;;;;;;;31.13;20.77;;;;;;;6.81;91.95;99283.81;5072635;28;20254;-75
2023/12/01 07:55:42;;;;;;;26.00;18.93;;;;;;;6.88;91.68;99298.75;5072272;28;20655;-75
2023/12/01 07:58:09;;;;;;;26.73;18.50;;;;;;;7.04;92.28;99300.44;5073569;28;20306;-77
2023/12/01 08:00:40;;;;;;;20.90;16.00;;;;;;;7.27;90.56;99309.16;5071970;28;20274;-75
2023/12/01 08:03:08;;;;;;;24.27;16.27;;;;;;;7.32;89.91;99312.06;5073043;28;20271;-76
2023/12/01 08:05:36;;;;;;;24.60;16.67;;;;;;;7.44;89.36;99300.91;5072972;28;20253;-75
2023/12/01 08:08:04;;;;;;;34.17;17.20;;;;;;;7.46;89.62;99296.25;5072567;28;20253;-75
2023/12/01 08:10:31;;;;;;;37.40;25.10;;;;;;;7.66;90.39;99307.09;5072310;28;20244;-75
2023/12/01 08:12:58;;;;;;;27.83;18.47;;;;;;;7.88;89.36;99314.13;5072986;28;20202;-76
2023/12/01 08:15:25;;;;;;;24.80;16.33;;;;;;;7.96;88.56;99328.06;5073124;28;20206;-75
2023/12/01 08:17:52;;;;;;;22.73;14.67;;;;;;;8.06;88.08;99338.38;5071713;28;20222;-75
2023/12/01 08:20:19;;;;;;;20.93;14.83;;;;;;;8.21;86.84;99334.72;5073021;28;20656;-74
2023/12/01 08:22:46;;;;;;;22.50;15.97;;;;;;;8.35;86.34;99322.47;5073197;28;20281;-73
2023/12/01 08:25:14;;;;;;;26.07;17.13;;;;;;;8.56;86.61;99315.41;5073051;28;20282;-73
2023/12/01 08:27:42;;;;;;;26.77;14.30;;;;;;;8.75;86.06;99319.25;5072835;28;20237;-79
2023/12/01 08:30:10;;;;;;;24.60;13.77;;;;;;;8.99;85.69;99321.53;5071902;28;20726;-79
2023/12/01 08:32:37;;;;;;;21.07;13.80;;;;;;;9.04;83.85;99304.06;5072622;28;20288;-77
2023/12/01 08:35:05;;;;;;;18.20;13.73;;;;;;;9.39;83.73;99328.81;5073149;28;20275;-77
2023/12/01 08:37:32;;;;;;;18.37;13.80;;;;;;;9.56;82.24;99336.25;5072840;28;20251;-77
2023/12/01 08:39:58;;;;;;;23.67;14.77;;;;;;;9.59;80.86;99330.56;5072545;28;20566;-74
2023/12/01 08:42:27;;;;;;;20.77;14.67;;;;;;;9.68;81.37;99333.91;5072655;28;20192;-76
2023/12/01 08:44:54;;;;;;;18.13;14.57;;;;;;;9.66;80.69;99320.00;5072801;28;20208;-76
2023/12/01 08:47:21;;;;;;;18.13;13.00;;;;;;;9.78;81.52;99310.50;5072526;28;20195;-77
2023/12/01 08:49:50;;;;;;;18.27;13.67;;;;;;;9.81;80.08;99320.72;5072401;28;20196;-75
2023/12/01 08:52:17;;;;;;;17.17;12.97;;;;;;;9.81;80.27;99307.47;5072860;28;20370;-75
2023/12/01 08:54:44;;;;;;;20.50;12.17;;;;;;;10.06;79.57;99300.69;5072599;28;20192;-75
2023/12/01 08:57:11;;;;;;;27.77;15.03;;;;;;;10.33;78.45;99302.41;5072448;28;20230;-74
2023/12/01 08:59:39;;;;;;;24.73;14.60;;;;;;;10.44;77.54;99307.16;5072564;28;20196;-75
2023/12/01 09:02:06;;;;;;;23.40;14.17;;;;;;;10.47;77.06;99304.91;5072455;28;20207;-77
2023/12/01 09:04:34;;;;;;;18.33;14.13;;;;;;;10.54;77.69;99311.06;5072379;28;20237;-75
2023/12/01 09:07:01;;;;;;;19.90;14.00;;;;;;;10.69;76.65;99300.28;5072144;28;20725;-74
2023/12/01 09:09:28;;;;;;;15.60;11.60;;;;;;;10.84;77.21;99283.16;5072780;28;20196;-74
2023/12/01 09:11:54;;;;;;;35.10;15.17;;;;;;;11.03;75.15;99279.69;5072081;28;20664;-75
2023/12/01 09:14:21;;;;;;;14.13;11.73;;;;;;;11.17;75.04;99275.19;5072825;28;20264;-74
2023/12/01 09:16:49;;;;;;;14.97;12.37;;;;;;;11.36;74.09;99263.72;5072426;28;20195;-77
2023/12/01 09:19:16;;;;;;;16.10;11.63;;;;;;;11.56;74.66;99251.19;5072441;28;20236;-76
2023/12/01 09:21:43;;;;;;;15.90;11.23;;;;;;;11.78;72.89;99249.97;5072260;28;20198;-77
2023/12/01 09:24:09;;;;;;;13.50;10.57;;;;;;;12.10;81.45;99230.38;5071904;28;20244;-77
2023/12/01 09:26:36;;;;;;;21.23;11.80;;;;;;;12.46;74.43;99249.22;5070091;28;20283;-73
2023/12/01 09:29:03;;;;;;;12.23;11.03;;;;;;;12.28;70.86;99275.75;5071221;28;20695;-73
2023/12/01 09:31:29;;;;;;;12.90;11.60;;;;;;;12.12;72.47;99280.75;5071530;28;20643;-73
2023/12/01 09:33:58;;;;;;;17.07;11.67;;;;;;;12.33;71.80;99283.94;5071648;28;20201;-74
2023/12/01 09:36:26;;;;;;;18.17;12.13;;;;;;;12.57;69.95;99277.06;5071867;28;20222;-74
2023/12/01 09:38:53;;;;;;;15.70;12.83;;;;;;;12.72;69.33;99267.72;5071338;28;20223;-73
2023/12/01 09:41:20;;;;;;;21.57;12.17;;;;;;;12.96;70.37;99274.94;5070830;28;20193;-73
2023/12/01 09:43:48;;;;;;;23.53;12.23;;;;;;;13.07;69.16;99271.59;5071387;28;20241;-74
2023/12/01 09:46:16;;;;;;;20.57;12.77;;;;;;;13.11;68.86;99272.78;5072179;28;20257;-74
2023/12/01 09:48:45;;;;;;;19.07;14.03;;;;;;;13.09;69.68;99255.38;5072287;28;20203;-73
2023/12/01 09:51:13;;;;;;;14.00;12.40;;;;;;;13.00;69.58;99254.84;5071641;28;20203;-73
2023/12/01 09:53:40;;;;;;;17.10;12.97;;;;;;;12.77;69.03;99253.75;5071725;28;20196;-75
2023/12/01 09:56:10;;;;;;;23.73;12.03;;;;;;;12.52;70.06;99244.88;5071035;28;20659;-73
2023/12/01 09:58:37;;;;;;;13.57;12.07;;;;;;;12.40;71.17;99247.44;5071056;28;20219;-74
2023/12/01 10:01:04;;;;;;;18.67;12.23;;;;;;;12.36;72.42;99230.25;5071047;28;20704;-72
2023/12/01 10:03:30;;;;;;;17.40;12.47;;;;;;;12.37;72.32;99226.53;5070980;28;20210;-73
2023/12/01 10:05:59;;;;;;;15.07;12.90;;;;;;;12.27;72.73;99223.53;5071588;28;20191;-75
2023/12/01 10:08:27;;;;;;;14.40;11.70;;;;;;;12.12;72.13;99228.31;5070981;28;20657;-73
2023/12/01 10:10:54;;;;;;;36.93;15.00;;;;;;;12.09;72.33;99220.75;5070753;28;20194;-74
2023/12/01 10:13:21;;;;;;;18.47;13.60;;;;;;;11.93;73.47;99213.28;5071352;28;20275;-74
2023/12/01 10:15:49;;;;;;;25.33;13.60;;;;;;;11.75;73.85;99157.25;5070871;28;20675;-75
2023/12/01 10:18:19;;;;;;;18.37;14.23;;;;;;;12.07;73.87;99204.19;5071172;28;20248;-78
2023/12/01 10:20:58;;;;;;;12.60;11.40;;;;;;;12.04;73.52;99199.28;5071522;28;20276;-75
2023/12/01 10:23:25;;;;;;;12.77;11.47;;;;;;;11.98;73.40;99202.78;5071832;28;20267;-76
2023/12/01 10:25:53;;;;;;;23.73;13.67;;;;;;;12.01;73.62;99193.56;5071617;28;20253;-75
2023/12/01 10:28:21;;;;;;;21.33;13.23;;;;;;;11.97;74.21;99176.38;5070924;28;20670;-74
2023/12/01 10:30:54;;;;;;;20.60;13.23;;;;;;;12.00;74.52;99155.47;5071367;28;20234;-75
2023/12/01 10:33:21;;;;;;;21.63;15.40;;;;;;;12.04;74.02;99145.22;5070997;28;20202;-77
2023/12/01 10:36:01;;;;;;;14.80;13.17;;;;;;;12.02;73.76;99177.38;5063433;28;20232;-74
2023/12/01 10:38:29;;;;;;;16.50;12.87;;;;;;;11.87;74.68;99192.81;5070484;28;20226;-73
2023/12/01 10:40:59;;;;;;;20.70;13.23;;;;;;;11.91;75.45;99203.84;5070629;28;20196;-74
2023/12/01 10:43:26;;;;;;;17.43;13.80;;;;;;;11.89;74.95;99204.06;5071458;28;20193;-73
2023/12/01 10:45:53;;;;;;;21.90;14.70;;;;;;;11.88;75.67;99178.47;5071081;28;20205;-79
2023/12/01 10:48:21;;;;;;;20.83;14.03;;;;;;;11.93;75.52;99194.63;5070761;28;20206;-75
2023/12/01 10:50:49;;;;;;;20.63;15.07;;;;;;;11.92;74.90;99206.28;5071147;28;20207;-76
2023/12/01 10:53:16;;;;;;;22.80;15.40;;;;;;;11.86;75.91;99214.31;5070722;28;20763;-76
2023/12/01 10:55:46;;;;;;;23.20;16.07;;;;;;;11.90;76.20;99189.72;5071245;28;20194;-78
2023/12/01 10:58:21;;;;;;;18.80;14.93;;;;;;;11.69;75.88;99195.34;5071115;28;20633;-77
2023/12/01 11:00:49;;;;;;;20.47;14.43;;;;;;;11.90;76.28;99196.88;5070882;28;20693;-76
2023/12/01 11:03:19;;;;;;;17.23;14.30;;;;;;;12.06;74.74;99191.91;5070798;28;20244;-77
2023/12/01 11:05:48;;;;;;;25.13;14.63;;;;;;;11.93;75.16;99196.47;5072013;28;20256;-76
2023/12/01 11:08:30;;;;;;;18.90;13.83;;;;;;;11.87;75.56;99207.94;5070984;28;20305;-75
2023/12/01 11:11:07;;;;;;;18.57;14.40;;;;;;;11.74;75.72;99195.53;5070946;28;20646;-75
2023/12/01 11:13:58;;;;;;;25.27;14.77;;;;;;;11.61;76.50;99176.13;5070213;28;20221;-75
2023/12/01 11:16:26;;;;;;;14.87;13.00;;;;;;;11.35;77.61;99186.81;5070684;28;20195;-77
2023/12/01 11:18:55;;;;;;;19.90;13.87;;;;;;;11.23;78.04;99178.66;5070201;28;20658;-79
2023/12/01 11:21:22;;;;;;;31.43;15.80;;;;;;;11.30;78.43;99174.13;5070401;28;20264;-76
2023/12/01 11:23:49;;;;;;;27.43;15.40;;;;;;;11.38;79.33;99176.56;5070493;28;20205;-78